sensor_id;sensor_type;location;lat;lon;timestamp;P1;durP1;ratioP1;P2;durP2;ratioP2
47866;SDS011;33628;50.806;11.586;2022-08-19T00:01:32;28.52;;;24.00;;
47866;SDS011;33628;50.806;11.586;2022-08-19T00:03:59;26.73;;;23.63;;
47866;SDS011;33628;50.806;11.586;2022-08-19T00:06:27;32.58;;;24.55;;
47866;SDS011;33628;50.806;11.586;2022-08-19T00:08:54;38.50;;;26.40;;
47866;SDS011;33628;50.806;11.586;2022-08-19T00:11:22;29.10;;;24.50;;
47866;SDS011;33628;50.806;11.586;2022-08-19T00:13:49;29.90;;;24.25;;
47866;SDS011;33628;50.806;11.586;2022-08-19T00:16:15;32.40;;;24.83;;
47866;SDS011;33628;50.806;11.586;2022-08-19T00:18:42;28.65;;;24.52;;
47866;SDS011;33628;50.806;11.586;2022-08-19T00:21:08;30.27;;;25.83;;
47866;SDS011;33628;50.806;11.586;2022-08-19T00:23:34;30.20;;;24.95;;
47866;SDS011;33628;50.806;11.586;2022-08-19T00:26:01;30.02;;;25.35;;
47866;SDS011;33628;50.806;11.586;2022-08-19T00:28:29;30.17;;;25.10;;
47866;SDS011;33628;50.806;11.586;2022-08-19T00:30:55;33.40;;;26.40;;
47866;SDS011;33628;50.806;11.586;2022-08-19T00:33:21;31.38;;;26.20;;
47866;SDS011;33628;50.806;11.586;2022-08-19T00:35:48;32.05;;;26.42;;
47866;SDS011;33628;50.806;11.586;2022-08-19T00:38:14;34.75;;;26.88;;
47866;SDS011;33628;50.806;11.586;2022-08-19T00:40:42;32.78;;;26.75;;
47866;SDS011;33628;50.806;11.586;2022-08-19T00:43:09;30.42;;;26.80;;
47866;SDS011;33628;50.806;11.586;2022-08-19T00:45:37;34.20;;;27.75;;
47866;SDS011;33628;50.806;11.586;2022-08-19T00:48:06;31.00;;;25.92;;
47866;SDS011;33628;50.806;11.586;2022-08-19T00:50:33;32.42;;;26.92;;
47866;SDS011;33628;50.806;11.586;2022-08-19T00:53:00;32.33;;;28.23;;
47866;SDS011;33628;50.806;11.586;2022-08-19T00:55:29;38.28;;;28.23;;
47866;SDS011;33628;50.806;11.586;2022-08-19T00:57:57;38.95;;;31.23;;
47866;SDS011;33628;50.806;11.586;2022-08-19T01:00:27;36.58;;;28.83;;
47866;SDS011;33628;50.806;11.586;2022-08-19T01:02:56;33.63;;;27.85;;
47866;SDS011;33628;50.806;11.586;2022-08-19T01:05:24;35.92;;;28.27;;
47866;SDS011;33628;50.806;11.586;2022-08-19T01:07:55;41.33;;;30.83;;
47866;SDS011;33628;50.806;11.586;2022-08-19T01:10:24;37.92;;;31.17;;
47866;SDS011;33628;50.806;11.586;2022-08-19T01:12:51;39.53;;;32.47;;
47866;SDS011;33628;50.806;11.586;2022-08-19T01:15:19;40.40;;;30.65;;
47866;SDS011;33628;50.806;11.586;2022-08-19T01:17:48;35.15;;;29.90;;
47866;SDS011;33628;50.806;11.586;2022-08-19T01:20:17;34.58;;;28.88;;
47866;SDS011;33628;50.806;11.586;2022-08-19T01:22:47;33.67;;;27.63;;
47866;SDS011;33628;50.806;11.586;2022-08-19T01:25:15;34.15;;;28.00;;
47866;SDS011;33628;50.806;11.586;2022-08-19T01:27:45;34.58;;;29.50;;
47866;SDS011;33628;50.806;11.586;2022-08-19T01:30:14;32.78;;;28.23;;
47866;SDS011;33628;50.806;11.586;2022-08-19T01:32:41;39.28;;;30.45;;
47866;SDS011;33628;50.806;11.586;2022-08-19T01:35:08;39.80;;;31.70;;
47866;SDS011;33628;50.806;11.586;2022-08-19T01:37:48;37.63;;;28.90;;
47866;SDS011;33628;50.806;11.586;2022-08-19T01:40:17;42.55;;;29.85;;
47866;SDS011;33628;50.806;11.586;2022-08-19T01:42:45;36.58;;;29.58;;
47866;SDS011;33628;50.806;11.586;2022-08-19T01:45:12;36.40;;;29.05;;
47866;SDS011;33628;50.806;11.586;2022-08-19T01:47:39;40.38;;;32.15;;
47866;SDS011;33628;50.806;11.586;2022-08-19T01:50:06;40.17;;;31.35;;
47866;SDS011;33628;50.806;11.586;2022-08-19T01:52:34;37.72;;;30.20;;
47866;SDS011;33628;50.806;11.586;2022-08-19T01:55:02;34.92;;;29.58;;
47866;SDS011;33628;50.806;11.586;2022-08-19T01:57:28;34.75;;;29.05;;
47866;SDS011;33628;50.806;11.586;2022-08-19T01:59:55;40.65;;;31.55;;
47866;SDS011;33628;50.806;11.586;2022-08-19T02:02:22;33.80;;;29.38;;
47866;SDS011;33628;50.806;11.586;2022-08-19T02:04:48;41.13;;;29.75;;
47866;SDS011;33628;50.806;11.586;2022-08-19T02:07:15;38.47;;;31.00;;
47866;SDS011;33628;50.806;11.586;2022-08-19T02:09:44;34.30;;;29.48;;
47866;SDS011;33628;50.806;11.586;2022-08-19T02:12:11;31.08;;;27.08;;
47866;SDS011;33628;50.806;11.586;2022-08-19T02:14:37;30.08;;;24.48;;
47866;SDS011;33628;50.806;11.586;2022-08-19T02:17:04;28.52;;;22.65;;
47866;SDS011;33628;50.806;11.586;2022-08-19T02:19:30;26.55;;;21.63;;
47866;SDS011;33628;50.806;11.586;2022-08-19T02:21:57;28.85;;;22.13;;
47866;SDS011;33628;50.806;11.586;2022-08-19T02:24:24;29.45;;;23.58;;
47866;SDS011;33628;50.806;11.586;2022-08-19T02:26:50;28.90;;;23.02;;
47866;SDS011;33628;50.806;11.586;2022-08-19T02:29:18;25.85;;;21.95;;
47866;SDS011;33628;50.806;11.586;2022-08-19T02:31:44;29.67;;;23.15;;
47866;SDS011;33628;50.806;11.586;2022-08-19T02:34:10;28.15;;;21.85;;
47866;SDS011;33628;50.806;11.586;2022-08-19T02:36:36;28.35;;;22.42;;
47866;SDS011;33628;50.806;11.586;2022-08-19T02:39:03;25.98;;;23.27;;
47866;SDS011;33628;50.806;11.586;2022-08-19T02:41:29;24.25;;;21.48;;
47866;SDS011;33628;50.806;11.586;2022-08-19T02:44:00;23.20;;;20.77;;
47866;SDS011;33628;50.806;11.586;2022-08-19T02:46:31;24.25;;;21.67;;
47866;SDS011;33628;50.806;11.586;2022-08-19T02:48:59;27.05;;;21.52;;
47866;SDS011;33628;50.806;11.586;2022-08-19T02:51:28;28.40;;;20.42;;
47866;SDS011;33628;50.806;11.586;2022-08-19T02:53:55;24.23;;;19.98;;
47866;SDS011;33628;50.806;11.586;2022-08-19T02:56:22;25.02;;;21.02;;
47866;SDS011;33628;50.806;11.586;2022-08-19T02:58:50;25.30;;;20.75;;
47866;SDS011;33628;50.806;11.586;2022-08-19T03:01:20;22.10;;;19.60;;
47866;SDS011;33628;50.806;11.586;2022-08-19T03:03:49;22.90;;;19.77;;
47866;SDS011;33628;50.806;11.586;2022-08-19T03:06:15;23.30;;;20.90;;
47866;SDS011;33628;50.806;11.586;2022-08-19T03:08:42;22.90;;;19.25;;
47866;SDS011;33628;50.806;11.586;2022-08-19T03:11:12;25.52;;;20.35;;
47866;SDS011;33628;50.806;11.586;2022-08-19T03:13:40;24.55;;;21.85;;
47866;SDS011;33628;50.806;11.586;2022-08-19T03:16:06;23.83;;;20.90;;
47866;SDS011;33628;50.806;11.586;2022-08-19T03:18:32;23.25;;;20.75;;
47866;SDS011;33628;50.806;11.586;2022-08-19T03:21:00;22.95;;;19.92;;
47866;SDS011;33628;50.806;11.586;2022-08-19T03:23:26;24.80;;;22.17;;
47866;SDS011;33628;50.806;11.586;2022-08-19T03:25:52;26.48;;;21.98;;
47866;SDS011;33628;50.806;11.586;2022-08-19T03:28:19;25.80;;;22.98;;
47866;SDS011;33628;50.806;11.586;2022-08-19T03:30:54;25.55;;;22.88;;
47866;SDS011;33628;50.806;11.586;2022-08-19T03:33:22;28.58;;;23.17;;
47866;SDS011;33628;50.806;11.586;2022-08-19T03:36:00;29.67;;;24.65;;
47866;SDS011;33628;50.806;11.586;2022-08-19T03:38:28;27.85;;;23.75;;
47866;SDS011;33628;50.806;11.586;2022-08-19T03:40:54;26.67;;;22.80;;
47866;SDS011;33628;50.806;11.586;2022-08-19T03:43:20;27.27;;;23.20;;
47866;SDS011;33628;50.806;11.586;2022-08-19T03:45:46;28.15;;;22.95;;
47866;SDS011;33628;50.806;11.586;2022-08-19T03:48:15;26.08;;;23.33;;
47866;SDS011;33628;50.806;11.586;2022-08-19T03:50:42;28.27;;;23.23;;
47866;SDS011;33628;50.806;11.586;2022-08-19T03:53:10;24.88;;;22.20;;
47866;SDS011;33628;50.806;11.586;2022-08-19T03:55:38;26.23;;;21.17;;
47866;SDS011;33628;50.806;11.586;2022-08-19T03:58:05;24.98;;;21.60;;
47866;SDS011;33628;50.806;11.586;2022-08-19T04:00:31;24.33;;;21.73;;
47866;SDS011;33628;50.806;11.586;2022-08-19T04:02:58;26.27;;;22.40;;
47866;SDS011;33628;50.806;11.586;2022-08-19T04:05:26;26.60;;;21.88;;
47866;SDS011;33628;50.806;11.586;2022-08-19T04:07:53;26.20;;;20.90;;
47866;SDS011;33628;50.806;11.586;2022-08-19T04:10:26;24.85;;;22.13;;
47866;SDS011;33628;50.806;11.586;2022-08-19T04:12:53;26.63;;;23.80;;
47866;SDS011;33628;50.806;11.586;2022-08-19T04:15:20;30.58;;;24.23;;
47866;SDS011;33628;50.806;11.586;2022-08-19T04:17:46;29.77;;;24.70;;
47866;SDS011;33628;50.806;11.586;2022-08-19T04:20:13;26.95;;;23.92;;
47866;SDS011;33628;50.806;11.586;2022-08-19T04:22:40;28.00;;;25.02;;
47866;SDS011;33628;50.806;11.586;2022-08-19T04:25:06;31.35;;;25.60;;
47866;SDS011;33628;50.806;11.586;2022-08-19T04:27:34;26.77;;;23.60;;
47866;SDS011;33628;50.806;11.586;2022-08-19T04:30:02;29.92;;;25.65;;
47866;SDS011;33628;50.806;11.586;2022-08-19T04:32:29;31.27;;;23.63;;
47866;SDS011;33628;50.806;11.586;2022-08-19T04:34:57;28.70;;;24.33;;
47866;SDS011;33628;50.806;11.586;2022-08-19T04:37:24;29.98;;;24.92;;
47866;SDS011;33628;50.806;11.586;2022-08-19T04:39:51;27.88;;;24.88;;
47866;SDS011;33628;50.806;11.586;2022-08-19T04:42:38;30.02;;;25.33;;
47866;SDS011;33628;50.806;11.586;2022-08-19T04:45:04;27.27;;;23.60;;
47866;SDS011;33628;50.806;11.586;2022-08-19T04:47:31;31.60;;;24.17;;
47866;SDS011;33628;50.806;11.586;2022-08-19T04:49:58;26.10;;;23.08;;
47866;SDS011;33628;50.806;11.586;2022-08-19T04:52:24;29.55;;;23.98;;
47866;SDS011;33628;50.806;11.586;2022-08-19T04:54:50;30.98;;;22.67;;
47866;SDS011;33628;50.806;11.586;2022-08-19T04:57:16;26.92;;;22.05;;
47866;SDS011;33628;50.806;11.586;2022-08-19T04:59:44;27.48;;;22.88;;
47866;SDS011;33628;50.806;11.586;2022-08-19T05:02:11;25.48;;;22.85;;
47866;SDS011;33628;50.806;11.586;2022-08-19T05:04:37;29.92;;;24.23;;
47866;SDS011;33628;50.806;11.586;2022-08-19T05:07:04;27.40;;;22.88;;
47866;SDS011;33628;50.806;11.586;2022-08-19T05:09:32;29.05;;;23.20;;
47866;SDS011;33628;50.806;11.586;2022-08-19T05:11:59;25.67;;;23.02;;
47866;SDS011;33628;50.806;11.586;2022-08-19T05:14:26;28.60;;;23.63;;
47866;SDS011;33628;50.806;11.586;2022-08-19T05:16:53;27.50;;;23.85;;
47866;SDS011;33628;50.806;11.586;2022-08-19T05:19:19;28.73;;;23.40;;
47866;SDS011;33628;50.806;11.586;2022-08-19T05:22:04;28.42;;;22.63;;
47866;SDS011;33628;50.806;11.586;2022-08-19T05:24:49;26.05;;;23.13;;
47866;SDS011;33628;50.806;11.586;2022-08-19T05:27:15;27.08;;;22.50;;
47866;SDS011;33628;50.806;11.586;2022-08-19T05:29:41;28.95;;;24.00;;
47866;SDS011;33628;50.806;11.586;2022-08-19T05:32:09;28.85;;;24.38;;
47866;SDS011;33628;50.806;11.586;2022-08-19T05:34:36;31.08;;;23.90;;
47866;SDS011;33628;50.806;11.586;2022-08-19T05:37:03;27.25;;;23.77;;
47866;SDS011;33628;50.806;11.586;2022-08-19T05:39:31;30.00;;;25.35;;
47866;SDS011;33628;50.806;11.586;2022-08-19T05:42:00;27.30;;;23.90;;
47866;SDS011;33628;50.806;11.586;2022-08-19T05:44:27;25.52;;;22.83;;
47866;SDS011;33628;50.806;11.586;2022-08-19T05:46:59;31.67;;;24.45;;
47866;SDS011;33628;50.806;11.586;2022-08-19T05:49:27;28.25;;;25.25;;
47866;SDS011;33628;50.806;11.586;2022-08-19T05:51:54;28.42;;;24.30;;
47866;SDS011;33628;50.806;11.586;2022-08-19T05:54:21;30.13;;;25.20;;
47866;SDS011;33628;50.806;11.586;2022-08-19T05:56:50;28.92;;;24.33;;
47866;SDS011;33628;50.806;11.586;2022-08-19T05:59:17;28.92;;;24.77;;
47866;SDS011;33628;50.806;11.586;2022-08-19T06:01:47;28.05;;;23.83;;
47866;SDS011;33628;50.806;11.586;2022-08-19T06:04:16;29.35;;;23.27;;
47866;SDS011;33628;50.806;11.586;2022-08-19T06:06:45;30.58;;;23.65;;
47866;SDS011;33628;50.806;11.586;2022-08-19T06:09:12;29.75;;;23.67;;
47866;SDS011;33628;50.806;11.586;2022-08-19T06:11:39;25.73;;;23.00;;
47866;SDS011;33628;50.806;11.586;2022-08-19T06:14:09;30.33;;;23.85;;
47866;SDS011;33628;50.806;11.586;2022-08-19T06:16:37;30.40;;;24.40;;
47866;SDS011;33628;50.806;11.586;2022-08-19T06:19:06;28.38;;;23.58;;
47866;SDS011;33628;50.806;11.586;2022-08-19T06:21:35;30.98;;;24.38;;
47866;SDS011;33628;50.806;11.586;2022-08-19T06:24:04;27.58;;;24.58;;
47866;SDS011;33628;50.806;11.586;2022-08-19T06:26:32;29.55;;;25.00;;
47866;SDS011;33628;50.806;11.586;2022-08-19T06:28:59;32.75;;;25.02;;
47866;SDS011;33628;50.806;11.586;2022-08-19T06:31:27;28.23;;;24.67;;
47866;SDS011;33628;50.806;11.586;2022-08-19T06:33:54;28.83;;;23.00;;
47866;SDS011;33628;50.806;11.586;2022-08-19T19:09:19;8.82;;;5.55;;
47866;SDS011;33628;50.806;11.586;2022-08-19T19:11:47;5.72;;;5.22;;
47866;SDS011;33628;50.806;11.586;2022-08-19T19:14:16;6.00;;;5.47;;
47866;SDS011;33628;50.806;11.586;2022-08-19T19:16:46;6.00;;;5.40;;
47866;SDS011;33628;50.806;11.586;2022-08-19T19:19:13;8.00;;;5.68;;
47866;SDS011;33628;50.806;11.586;2022-08-19T19:21:40;6.45;;;5.85;;
47866;SDS011;33628;50.806;11.586;2022-08-19T19:24:11;8.00;;;5.28;;
47866;SDS011;33628;50.806;11.586;2022-08-19T19:26:40;6.82;;;6.13;;
47866;SDS011;33628;50.806;11.586;2022-08-19T19:29:08;7.07;;;5.60;;
47866;SDS011;33628;50.806;11.586;2022-08-19T19:31:34;9.23;;;6.18;;
47866;SDS011;33628;50.806;11.586;2022-08-19T19:34:01;9.52;;;6.05;;
47866;SDS011;33628;50.806;11.586;2022-08-19T19:36:27;5.75;;;5.20;;
47866;SDS011;33628;50.806;11.586;2022-08-19T19:38:53;6.70;;;5.70;;
47866;SDS011;33628;50.806;11.586;2022-08-19T19:41:20;7.40;;;6.30;;
47866;SDS011;33628;50.806;11.586;2022-08-19T19:43:50;8.77;;;6.88;;
47866;SDS011;33628;50.806;11.586;2022-08-19T19:46:16;12.73;;;10.20;;
47866;SDS011;33628;50.806;11.586;2022-08-19T19:48:42;7.90;;;6.75;;
47866;SDS011;33628;50.806;11.586;2022-08-19T19:51:09;7.60;;;6.55;;
47866;SDS011;33628;50.806;11.586;2022-08-19T19:53:35;7.93;;;5.68;;
47866;SDS011;33628;50.806;11.586;2022-08-19T19:56:01;8.70;;;6.07;;
47866;SDS011;33628;50.806;11.586;2022-08-19T19:58:29;6.75;;;5.70;;
47866;SDS011;33628;50.806;11.586;2022-08-19T20:00:57;7.75;;;6.68;;
47866;SDS011;33628;50.806;11.586;2022-08-19T20:03:24;6.88;;;6.07;;
47866;SDS011;33628;50.806;11.586;2022-08-19T20:05:50;7.38;;;6.72;;
47866;SDS011;33628;50.806;11.586;2022-08-19T20:08:17;8.18;;;6.60;;
47866;SDS011;33628;50.806;11.586;2022-08-19T20:11:03;10.02;;;6.80;;
47866;SDS011;33628;50.806;11.586;2022-08-19T20:13:30;12.00;;;7.18;;
47866;SDS011;33628;50.806;11.586;2022-08-19T20:15:59;7.70;;;6.90;;
47866;SDS011;33628;50.806;11.586;2022-08-19T20:18:28;8.57;;;7.07;;
47866;SDS011;33628;50.806;11.586;2022-08-19T20:20:54;12.05;;;7.53;;
47866;SDS011;33628;50.806;11.586;2022-08-19T20:23:21;8.55;;;6.47;;
47866;SDS011;33628;50.806;11.586;2022-08-19T20:25:47;9.40;;;6.15;;
47866;SDS011;33628;50.806;11.586;2022-08-19T20:28:14;9.18;;;7.28;;
47866;SDS011;33628;50.806;11.586;2022-08-19T20:30:41;13.48;;;6.72;;
47866;SDS011;33628;50.806;11.586;2022-08-19T20:33:12;10.52;;;6.75;;
47866;SDS011;33628;50.806;11.586;2022-08-19T20:35:41;9.98;;;6.70;;
47866;SDS011;33628;50.806;11.586;2022-08-19T20:38:09;7.40;;;6.65;;
47866;SDS011;33628;50.806;11.586;2022-08-19T20:40:35;7.57;;;6.80;;
47866;SDS011;33628;50.806;11.586;2022-08-19T20:43:05;7.32;;;6.57;;
47866;SDS011;33628;50.806;11.586;2022-08-19T20:45:33;8.30;;;7.30;;
47866;SDS011;33628;50.806;11.586;2022-08-19T20:48:01;8.23;;;6.22;;
47866;SDS011;33628;50.806;11.586;2022-08-19T20:50:30;10.30;;;6.90;;
47866;SDS011;33628;50.806;11.586;2022-08-19T20:52:56;9.80;;;6.05;;
47866;SDS011;33628;50.806;11.586;2022-08-19T20:55:23;7.20;;;6.22;;
47866;SDS011;33628;50.806;11.586;2022-08-19T20:57:50;8.75;;;6.30;;
47866;SDS011;33628;50.806;11.586;2022-08-19T21:00:17;7.15;;;6.28;;
47866;SDS011;33628;50.806;11.586;2022-08-19T21:02:43;7.32;;;6.47;;
47866;SDS011;33628;50.806;11.586;2022-08-19T21:05:09;9.60;;;5.43;;
47866;SDS011;33628;50.806;11.586;2022-08-19T21:07:36;7.43;;;6.10;;
47866;SDS011;33628;50.806;11.586;2022-08-19T21:10:03;7.43;;;6.15;;
47866;SDS011;33628;50.806;11.586;2022-08-19T21:12:32;8.43;;;6.20;;
47866;SDS011;33628;50.806;11.586;2022-08-19T21:14:59;6.72;;;5.82;;
47866;SDS011;33628;50.806;11.586;2022-08-19T21:17:25;8.60;;;6.10;;
47866;SDS011;33628;50.806;11.586;2022-08-19T21:19:51;7.00;;;5.97;;
47866;SDS011;33628;50.806;11.586;2022-08-19T21:22:17;6.88;;;5.97;;
47866;SDS011;33628;50.806;11.586;2022-08-19T21:24:45;6.43;;;5.80;;
47866;SDS011;33628;50.806;11.586;2022-08-19T21:27:11;6.10;;;5.43;;
47866;SDS011;33628;50.806;11.586;2022-08-19T21:29:37;6.30;;;5.70;;
47866;SDS011;33628;50.806;11.586;2022-08-19T21:32:04;6.47;;;5.57;;
47866;SDS011;33628;50.806;11.586;2022-08-19T21:34:31;7.43;;;5.82;;
47866;SDS011;33628;50.806;11.586;2022-08-19T21:36:57;7.30;;;6.13;;
47866;SDS011;33628;50.806;11.586;2022-08-19T21:39:23;8.73;;;5.85;;
47866;SDS011;33628;50.806;11.586;2022-08-19T21:41:51;6.22;;;5.63;;
47866;SDS011;33628;50.806;11.586;2022-08-19T21:44:17;6.32;;;5.72;;
47866;SDS011;33628;50.806;11.586;2022-08-19T21:46:43;7.45;;;5.85;;
47866;SDS011;33628;50.806;11.586;2022-08-19T21:49:09;8.57;;;6.22;;
47866;SDS011;33628;50.806;11.586;2022-08-19T21:51:36;9.38;;;6.10;;
47866;SDS011;33628;50.806;11.586;2022-08-19T21:54:02;6.85;;;6.20;;
47866;SDS011;33628;50.806;11.586;2022-08-19T21:56:29;10.00;;;6.40;;
47866;SDS011;33628;50.806;11.586;2022-08-19T21:58:57;7.20;;;6.50;;
47866;SDS011;33628;50.806;11.586;2022-08-19T22:01:23;9.20;;;6.47;;
47866;SDS011;33628;50.806;11.586;2022-08-19T22:03:49;11.00;;;7.40;;
47866;SDS011;33628;50.806;11.586;2022-08-19T22:06:16;7.80;;;7.00;;
47866;SDS011;33628;50.806;11.586;2022-08-19T22:12:36;9.82;;;7.20;;
47866;SDS011;33628;50.806;11.586;2022-08-19T22:15:05;10.55;;;7.45;;
47866;SDS011;33628;50.806;11.586;2022-08-19T22:17:33;9.18;;;7.32;;
47866;SDS011;33628;50.806;11.586;2022-08-19T22:19:59;9.10;;;7.80;;
47866;SDS011;33628;50.806;11.586;2022-08-19T22:22:27;8.05;;;7.25;;
47866;SDS011;33628;50.806;11.586;2022-08-19T22:24:59;11.38;;;7.28;;
47866;SDS011;33628;50.806;11.586;2022-08-19T22:27:27;7.82;;;7.03;;
47866;SDS011;33628;50.806;11.586;2022-08-19T22:29:53;11.25;;;7.57;;
47866;SDS011;33628;50.806;11.586;2022-08-19T22:32:21;10.60;;;8.82;;
47866;SDS011;33628;50.806;11.586;2022-08-19T22:34:47;10.02;;;7.47;;
47866;SDS011;33628;50.806;11.586;2022-08-19T22:37:13;9.63;;;7.53;;
47866;SDS011;33628;50.806;11.586;2022-08-19T22:39:39;8.18;;;6.88;;
47866;SDS011;33628;50.806;11.586;2022-08-19T22:42:05;7.75;;;6.95;;
47866;SDS011;33628;50.806;11.586;2022-08-19T22:44:31;7.60;;;6.82;;
47866;SDS011;33628;50.806;11.586;2022-08-19T22:46:58;8.00;;;7.20;;
47866;SDS011;33628;50.806;11.586;2022-08-19T22:49:25;7.68;;;6.97;;
47866;SDS011;33628;50.806;11.586;2022-08-19T22:51:51;9.98;;;7.47;;
47866;SDS011;33628;50.806;11.586;2022-08-19T22:54:36;8.07;;;6.88;;
47866;SDS011;33628;50.806;11.586;2022-08-19T22:57:02;8.70;;;7.57;;
47866;SDS011;33628;50.806;11.586;2022-08-19T22:59:28;8.20;;;7.32;;
47866;SDS011;33628;50.806;11.586;2022-08-19T23:01:54;8.23;;;7.43;;
47866;SDS011;33628;50.806;11.586;2022-08-19T23:04:21;8.80;;;7.65;;
47866;SDS011;33628;50.806;11.586;2022-08-19T23:06:48;8.73;;;7.70;;
47866;SDS011;33628;50.806;11.586;2022-08-19T23:09:17;8.60;;;7.70;;
47866;SDS011;33628;50.806;11.586;2022-08-19T23:11:44;9.68;;;8.68;;
47866;SDS011;33628;50.806;11.586;2022-08-19T23:14:10;10.98;;;8.50;;
47866;SDS011;33628;50.806;11.586;2022-08-19T23:16:37;11.43;;;9.80;;
47866;SDS011;33628;50.806;11.586;2022-08-19T23:19:04;15.57;;;8.93;;
47866;SDS011;33628;50.806;11.586;2022-08-19T23:21:30;10.68;;;9.52;;
47866;SDS011;33628;50.806;11.586;2022-08-19T23:23:57;14.10;;;9.30;;
47866;SDS011;33628;50.806;11.586;2022-08-19T23:26:23;12.60;;;8.50;;
47866;SDS011;33628;50.806;11.586;2022-08-19T23:28:50;13.57;;;9.43;;
47866;SDS011;33628;50.806;11.586;2022-08-19T23:31:34;12.70;;;9.43;;
47866;SDS011;33628;50.806;11.586;2022-08-19T23:34:00;10.63;;;9.52;;
47866;SDS011;33628;50.806;11.586;2022-08-19T23:36:27;12.85;;;9.40;;
47866;SDS011;33628;50.806;11.586;2022-08-19T23:38:53;12.70;;;9.80;;
47866;SDS011;33628;50.806;11.586;2022-08-19T23:41:21;12.30;;;10.52;;
47866;SDS011;33628;50.806;11.586;2022-08-19T23:43:48;14.98;;;10.90;;
47866;SDS011;33628;50.806;11.586;2022-08-19T23:46:15;12.88;;;10.90;;
47866;SDS011;33628;50.806;11.586;2022-08-19T23:48:45;14.38;;;10.00;;
47866;SDS011;33628;50.806;11.586;2022-08-19T23:51:12;13.25;;;10.93;;
47866;SDS011;33628;50.806;11.586;2022-08-19T23:53:40;13.70;;;10.38;;
47866;SDS011;33628;50.806;11.586;2022-08-19T23:56:07;12.80;;;11.13;;
47866;SDS011;33628;50.806;11.586;2022-08-19T23:58:36;11.52;;;10.30;;
